sensor_id;sensor_type;location;lat;lon;timestamp;pressure;altitude;pressure_sealevel;temperature;humidity
57412;BME280;43247;52.828;-8.980;2023-03-22T00:00:49;98874.19;;;10.25;84.42
57412;BME280;43247;52.828;-8.980;2023-03-22T00:01:48;98874.14;;;10.26;84.74
57412;BME280;43247;52.828;-8.980;2023-03-22T00:02:48;98875.59;;;10.26;84.54
57412;BME280;43247;52.828;-8.980;2023-03-22T00:03:50;98873.81;;;10.27;84.83
57412;BME280;43247;52.828;-8.980;2023-03-22T00:04:49;98882.26;;;10.24;85.36
57412;BME280;43247;52.828;-8.980;2023-03-22T00:05:55;98890.01;;;10.21;84.47
57412;BME280;43247;52.828;-8.980;2023-03-22T00:06:50;98889.91;;;10.16;85.21
57412;BME280;43247;52.828;-8.980;2023-03-22T00:07:50;98883.35;;;10.14;84.94
57412;BME280;43247;52.828;-8.980;2023-03-22T00:08:51;98885.78;;;10.12;84.79
57412;BME280;43247;52.828;-8.980;2023-03-22T00:09:51;98887.05;;;10.09;84.94
57412;BME280;43247;52.828;-8.980;2023-03-22T00:10:51;98888.71;;;10.08;85.15
57412;BME280;43247;52.828;-8.980;2023-03-22T00:11:52;98889.96;;;10.07;85.31
57412;BME280;43247;52.828;-8.980;2023-03-22T00:12:52;98889.14;;;10.05;84.87
57412;BME280;43247;52.828;-8.980;2023-03-22T00:13:52;98895.51;;;10.05;84.96
57412;BME280;43247;52.828;-8.980;2023-03-22T00:14:53;98887.96;;;10.04;85.65
57412;BME280;43247;52.828;-8.980;2023-03-22T00:15:54;98886.63;;;10.02;84.99
57412;BME280;43247;52.828;-8.980;2023-03-22T00:16:53;98889.54;;;9.99;85.09
57412;BME280;43247;52.828;-8.980;2023-03-22T00:17:53;98887.97;;;9.97;85.27
57412;BME280;43247;52.828;-8.980;2023-03-22T00:18:53;98893.81;;;9.95;85.66
57412;BME280;43247;52.828;-8.980;2023-03-22T00:19:54;98891.81;;;9.93;85.70
57412;BME280;43247;52.828;-8.980;2023-03-22T00:20:56;98897.82;;;9.91;86.05
57412;BME280;43247;52.828;-8.980;2023-03-22T00:21:55;98899.93;;;9.91;85.74
57412;BME280;43247;52.828;-8.980;2023-03-22T00:22:55;98897.82;;;9.89;86.00
57412;BME280;43247;52.828;-8.980;2023-03-22T00:23:55;98898.63;;;9.88;86.19
57412;BME280;43247;52.828;-8.980;2023-03-22T00:24:56;98901.21;;;9.88;86.37
57412;BME280;43247;52.828;-8.980;2023-03-22T00:25:57;98903.47;;;9.88;86.22
57412;BME280;43247;52.828;-8.980;2023-03-22T00:26:57;98905.09;;;9.87;86.42
57412;BME280;43247;52.828;-8.980;2023-03-22T00:27:57;98907.75;;;9.85;86.52
57412;BME280;43247;52.828;-8.980;2023-03-22T00:28:57;98903.35;;;9.84;86.74
57412;BME280;43247;52.828;-8.980;2023-03-22T00:29:57;98906.07;;;9.81;86.67
57412;BME280;43247;52.828;-8.980;2023-03-22T00:31:00;98906.79;;;9.79;86.93
57412;BME280;43247;52.828;-8.980;2023-03-22T00:31:58;98906.54;;;9.78;86.21
57412;BME280;43247;52.828;-8.980;2023-03-22T00:32:59;98910.00;;;9.77;86.82
57412;BME280;43247;52.828;-8.980;2023-03-22T00:33:59;98912.93;;;9.76;86.65
57412;BME280;43247;52.828;-8.980;2023-03-22T00:34:59;98909.64;;;9.74;86.86
57412;BME280;43247;52.828;-8.980;2023-03-22T00:36:01;98914.12;;;9.73;86.72
57412;BME280;43247;52.828;-8.980;2023-03-22T00:36:59;98921.22;;;9.72;87.11
57412;BME280;43247;52.828;-8.980;2023-03-22T00:37:59;98920.02;;;9.71;87.66
57412;BME280;43247;52.828;-8.980;2023-03-22T00:39:00;98925.89;;;9.70;87.38
57412;BME280;43247;52.828;-8.980;2023-03-22T00:40:00;98930.06;;;9.69;87.23
57412;BME280;43247;52.828;-8.980;2023-03-22T00:41:05;98930.16;;;9.68;87.47
57412;BME280;43247;52.828;-8.980;2023-03-22T00:42:02;98933.08;;;9.65;87.47
57412;BME280;43247;52.828;-8.980;2023-03-22T00:43:01;98934.45;;;9.63;87.37
57412;BME280;43247;52.828;-8.980;2023-03-22T00:44:01;98941.52;;;9.62;87.97
57412;BME280;43247;52.828;-8.980;2023-03-22T00:45:03;98936.68;;;9.60;87.45
57412;BME280;43247;52.828;-8.980;2023-03-22T00:46:03;98932.07;;;9.60;87.90
57412;BME280;43247;52.828;-8.980;2023-03-22T00:47:03;98932.61;;;9.59;87.49
57412;BME280;43247;52.828;-8.980;2023-03-22T00:48:03;98930.12;;;9.58;87.34
57412;BME280;43247;52.828;-8.980;2023-03-22T00:49:04;98935.06;;;9.57;87.75
57412;BME280;43247;52.828;-8.980;2023-03-22T00:50:06;98932.36;;;9.57;87.51
57412;BME280;43247;52.828;-8.980;2023-03-22T00:51:05;98939.79;;;9.56;87.94
57412;BME280;43247;52.828;-8.980;2023-03-22T00:52:04;98942.21;;;9.55;88.37
57412;BME280;43247;52.828;-8.980;2023-03-22T00:53:05;98948.10;;;9.54;88.07
57412;BME280;43247;52.828;-8.980;2023-03-22T00:54:06;98950.86;;;9.52;87.54
57412;BME280;43247;52.828;-8.980;2023-03-22T00:55:07;98956.40;;;9.51;88.22
57412;BME280;43247;52.828;-8.980;2023-03-22T00:56:07;98958.07;;;9.50;88.00
57412;BME280;43247;52.828;-8.980;2023-03-22T00:57:06;98951.68;;;9.48;87.28
57412;BME280;43247;52.828;-8.980;2023-03-22T00:58:07;98956.01;;;9.45;86.76
57412;BME280;43247;52.828;-8.980;2023-03-22T00:59:08;98954.67;;;9.44;87.11
57412;BME280;43247;52.828;-8.980;2023-03-22T01:00:09;98960.29;;;9.43;87.29
57412;BME280;43247;52.828;-8.980;2023-03-22T01:01:09;98967.13;;;9.41;87.04
57412;BME280;43247;52.828;-8.980;2023-03-22T01:02:09;98968.99;;;9.41;87.07
57412;BME280;43247;52.828;-8.980;2023-03-22T01:03:09;98966.45;;;9.40;88.35
57412;BME280;43247;52.828;-8.980;2023-03-22T01:04:09;98970.73;;;9.39;88.15
57412;BME280;43247;52.828;-8.980;2023-03-22T01:05:10;98977.28;;;9.36;88.22
57412;BME280;43247;52.828;-8.980;2023-03-22T01:06:10;98980.11;;;9.37;89.18
57412;BME280;43247;52.828;-8.980;2023-03-22T01:07:11;98980.13;;;9.35;88.65
57412;BME280;43247;52.828;-8.980;2023-03-22T01:08:11;98979.97;;;9.35;88.18
57412;BME280;43247;52.828;-8.980;2023-03-22T01:09:11;98981.59;;;9.32;87.48
57412;BME280;43247;52.828;-8.980;2023-03-22T01:10:11;98990.19;;;9.31;88.43
57412;BME280;43247;52.828;-8.980;2023-03-22T01:11:12;98988.26;;;9.30;87.67
57412;BME280;43247;52.828;-8.980;2023-03-22T01:12:12;98991.79;;;9.26;87.57
57412;BME280;43247;52.828;-8.980;2023-03-22T01:13:12;98997.22;;;9.25;87.68
57412;BME280;43247;52.828;-8.980;2023-03-22T01:14:13;98993.79;;;9.24;88.04
57412;BME280;43247;52.828;-8.980;2023-03-22T01:15:13;98991.28;;;9.22;87.75
57412;BME280;43247;52.828;-8.980;2023-03-22T01:16:13;98998.03;;;9.21;88.00
57412;BME280;43247;52.828;-8.980;2023-03-22T01:17:13;98998.76;;;9.20;87.72
57412;BME280;43247;52.828;-8.980;2023-03-22T01:18:13;99002.65;;;9.20;88.00
57412;BME280;43247;52.828;-8.980;2023-03-22T01:19:14;99007.07;;;9.19;87.82
57412;BME280;43247;52.828;-8.980;2023-03-22T01:20:14;99004.76;;;9.19;87.60
57412;BME280;43247;52.828;-8.980;2023-03-22T01:21:15;99005.29;;;9.19;87.41
57412;BME280;43247;52.828;-8.980;2023-03-22T01:22:15;99002.74;;;9.17;87.17
57412;BME280;43247;52.828;-8.980;2023-03-22T01:23:16;99005.06;;;9.16;87.32
57412;BME280;43247;52.828;-8.980;2023-03-22T01:24:16;99004.61;;;9.14;87.67
57412;BME280;43247;52.828;-8.980;2023-03-22T01:25:16;99011.26;;;9.13;87.63
57412;BME280;43247;52.828;-8.980;2023-03-22T01:26:16;99007.53;;;9.11;87.22
57412;BME280;43247;52.828;-8.980;2023-03-22T01:27:16;99007.88;;;9.10;87.91
57412;BME280;43247;52.828;-8.980;2023-03-22T01:28:16;99012.15;;;9.09;88.69
57412;BME280;43247;52.828;-8.980;2023-03-22T01:29:17;99009.61;;;9.07;87.85
57412;BME280;43247;52.828;-8.980;2023-03-22T01:30:17;99011.84;;;9.06;88.25
57412;BME280;43247;52.828;-8.980;2023-03-22T01:31:17;99008.64;;;9.05;88.28
57412;BME280;43247;52.828;-8.980;2023-03-22T01:32:17;99010.49;;;9.05;88.48
57412;BME280;43247;52.828;-8.980;2023-03-22T01:33:18;99008.19;;;9.04;88.46
57412;BME280;43247;52.828;-8.980;2023-03-22T01:34:18;99007.45;;;9.03;88.29
57412;BME280;43247;52.828;-8.980;2023-03-22T01:35:19;99008.87;;;9.02;88.62
57412;BME280;43247;52.828;-8.980;2023-03-22T01:36:19;99008.37;;;9.01;88.42
57412;BME280;43247;52.828;-8.980;2023-03-22T01:37:19;99009.53;;;9.00;89.03
57412;BME280;43247;52.828;-8.980;2023-03-22T01:38:19;99014.74;;;8.99;88.73
57412;BME280;43247;52.828;-8.980;2023-03-22T01:39:20;99011.69;;;8.98;89.05
57412;BME280;43247;52.828;-8.980;2023-03-22T01:40:21;99011.81;;;8.98;89.51
57412;BME280;43247;52.828;-8.980;2023-03-22T01:41:21;99007.70;;;8.97;89.49
57412;BME280;43247;52.828;-8.980;2023-03-22T01:42:22;99012.81;;;8.96;89.35
57412;BME280;43247;52.828;-8.980;2023-03-22T01:43:22;99006.48;;;8.95;89.97
57412;BME280;43247;52.828;-8.980;2023-03-22T01:44:23;99005.73;;;8.95;89.83
57412;BME280;43247;52.828;-8.980;2023-03-22T01:45:33;99009.85;;;8.93;89.69
57412;BME280;43247;52.828;-8.980;2023-03-22T01:46:23;99011.78;;;8.93;89.81
57412;BME280;43247;52.828;-8.980;2023-03-22T01:47:24;99012.45;;;8.93;90.19
57412;BME280;43247;52.828;-8.980;2023-03-22T01:48:27;99014.46;;;8.92;89.96
57412;BME280;43247;52.828;-8.980;2023-03-22T01:49:26;99017.56;;;8.91;90.13
57412;BME280;43247;52.828;-8.980;2023-03-22T01:50:25;99020.50;;;8.91;89.85
57412;BME280;43247;52.828;-8.980;2023-03-22T01:51:25;99040.77;;;8.89;90.08
57412;BME280;43247;52.828;-8.980;2023-03-22T01:52:26;99077.72;;;8.90;90.46
57412;BME280;43247;52.828;-8.980;2023-03-22T01:53:26;99057.31;;;8.88;90.24
57412;BME280;43247;52.828;-8.980;2023-03-22T01:54:31;99049.45;;;8.88;90.59
57412;BME280;43247;52.828;-8.980;2023-03-22T01:55:26;99055.01;;;8.87;90.98
57412;BME280;43247;52.828;-8.980;2023-03-22T01:56:30;99052.26;;;8.86;90.79
57412;BME280;43247;52.828;-8.980;2023-03-22T01:57:27;99045.13;;;8.86;91.09
57412;BME280;43247;52.828;-8.980;2023-03-22T01:58:28;99042.86;;;8.84;91.24
57412;BME280;43247;52.828;-8.980;2023-03-22T01:59:28;99047.69;;;8.84;91.60
57412;BME280;43247;52.828;-8.980;2023-03-22T02:00:28;99045.45;;;8.83;91.26
57412;BME280;43247;52.828;-8.980;2023-03-22T02:01:29;99046.74;;;8.82;91.10
57412;BME280;43247;52.828;-8.980;2023-03-22T02:02:29;99043.21;;;8.80;91.08
57412;BME280;43247;52.828;-8.980;2023-03-22T02:03:35;99043.28;;;8.80;90.98
57412;BME280;43247;52.828;-8.980;2023-03-22T02:04:32;99041.93;;;8.80;91.01
57412;BME280;43247;52.828;-8.980;2023-03-22T02:05:31;99045.48;;;8.80;90.29
57412;BME280;43247;52.828;-8.980;2023-03-22T02:06:30;99043.75;;;8.80;90.07
57412;BME280;43247;52.828;-8.980;2023-03-22T02:07:30;99043.73;;;8.81;90.11
57412;BME280;43247;52.828;-8.980;2023-03-22T02:08:31;99050.34;;;8.81;90.12
57412;BME280;43247;52.828;-8.980;2023-03-22T02:09:30;99049.40;;;8.80;90.22
57412;BME280;43247;52.828;-8.980;2023-03-22T02:10:31;99047.40;;;8.79;89.44
57412;BME280;43247;52.828;-8.980;2023-03-22T02:11:33;99047.60;;;8.79;89.49
57412;BME280;43247;52.828;-8.980;2023-03-22T02:12:38;99050.61;;;8.79;89.49
57412;BME280;43247;52.828;-8.980;2023-03-22T02:13:42;99043.13;;;8.79;89.79
57412;BME280;43247;52.828;-8.980;2023-03-22T02:14:44;99050.34;;;8.78;90.36
57412;BME280;43247;52.828;-8.980;2023-03-22T02:15:39;99048.53;;;8.77;89.84
57412;BME280;43247;52.828;-8.980;2023-03-22T02:16:39;99047.52;;;8.77;89.58
57412;BME280;43247;52.828;-8.980;2023-03-22T02:17:39;99050.08;;;8.76;89.53
57412;BME280;43247;52.828;-8.980;2023-03-22T02:18:45;99050.51;;;8.75;89.35
57412;BME280;43247;52.828;-8.980;2023-03-22T02:20:46;99051.58;;;8.75;90.32
57412;BME280;43247;52.828;-8.980;2023-03-22T02:22:48;99051.22;;;8.73;89.94
57412;BME280;43247;52.828;-8.980;2023-03-22T02:23:47;99052.69;;;8.72;89.38
57412;BME280;43247;52.828;-8.980;2023-03-22T02:28:42;99053.72;;;8.68;89.47
57412;BME280;43247;52.828;-8.980;2023-03-22T02:29:40;99054.63;;;8.67;89.57
57412;BME280;43247;52.828;-8.980;2023-03-22T02:30:54;99053.90;;;8.66;89.75
57412;BME280;43247;52.828;-8.980;2023-03-22T02:31:49;99054.33;;;8.65;89.75
57412;BME280;43247;52.828;-8.980;2023-03-22T02:32:52;99051.23;;;8.65;89.70
57412;BME280;43247;52.828;-8.980;2023-03-22T02:33:48;99054.80;;;8.63;89.92
57412;BME280;43247;52.828;-8.980;2023-03-22T02:34:54;99057.26;;;8.63;89.84
57412;BME280;43247;52.828;-8.980;2023-03-22T02:35:52;99055.04;;;8.61;89.65
57412;BME280;43247;52.828;-8.980;2023-03-22T02:36:51;99055.89;;;8.60;89.99
57412;BME280;43247;52.828;-8.980;2023-03-22T02:37:52;99056.14;;;8.60;89.85
57412;BME280;43247;52.828;-8.980;2023-03-22T02:39:46;99061.14;;;8.58;89.58
57412;BME280;43247;52.828;-8.980;2023-03-22T02:40:47;99060.89;;;8.50;87.22
57412;BME280;43247;52.828;-8.980;2023-03-22T02:41:54;99060.06;;;8.48;86.07
57412;BME280;43247;52.828;-8.980;2023-03-22T02:42:54;99063.51;;;8.47;85.04
57412;BME280;43247;52.828;-8.980;2023-03-22T02:43:54;99064.87;;;8.39;84.46
57412;BME280;43247;52.828;-8.980;2023-03-22T02:44:51;99066.73;;;8.39;84.36
57412;BME280;43247;52.828;-8.980;2023-03-22T02:45:51;99065.13;;;8.41;84.80
57412;BME280;43247;52.828;-8.980;2023-03-22T02:46:50;99066.67;;;8.48;84.88
57412;BME280;43247;52.828;-8.980;2023-03-22T02:47:53;99064.47;;;8.50;84.29
57412;BME280;43247;52.828;-8.980;2023-03-22T02:48:51;99068.47;;;8.48;84.94
57412;BME280;43247;52.828;-8.980;2023-03-22T02:49:52;99067.52;;;8.47;84.79
57412;BME280;43247;52.828;-8.980;2023-03-22T02:50:52;99067.75;;;8.44;84.36
57412;BME280;43247;52.828;-8.980;2023-03-22T02:51:51;99068.60;;;8.45;84.49
57412;BME280;43247;52.828;-8.980;2023-03-22T02:52:51;99071.25;;;8.46;85.11
57412;BME280;43247;52.828;-8.980;2023-03-22T02:53:51;99074.33;;;8.50;85.97
57412;BME280;43247;52.828;-8.980;2023-03-22T02:54:53;99078.09;;;8.51;85.36
57412;BME280;43247;52.828;-8.980;2023-03-22T02:55:50;99071.03;;;8.53;86.25
57412;BME280;43247;52.828;-8.980;2023-03-22T02:56:53;99076.40;;;8.50;85.31
57412;BME280;43247;52.828;-8.980;2023-03-22T02:57:51;99069.90;;;8.49;86.22
57412;BME280;43247;52.828;-8.980;2023-03-22T02:58:50;99071.52;;;8.49;86.18
57412;BME280;43247;52.828;-8.980;2023-03-22T02:59:50;99065.85;;;8.50;85.92
57412;BME280;43247;52.828;-8.980;2023-03-22T03:00:52;99066.21;;;8.50;85.52
57412;BME280;43247;52.828;-8.980;2023-03-22T03:01:51;99066.73;;;8.49;86.49
57412;BME280;43247;52.828;-8.980;2023-03-22T03:02:52;99065.18;;;8.50;86.78
57412;BME280;43247;52.828;-8.980;2023-03-22T03:03:53;99065.52;;;8.52;87.00
57412;BME280;43247;52.828;-8.980;2023-03-22T03:04:50;99068.11;;;8.52;87.23
57412;BME280;43247;52.828;-8.980;2023-03-22T03:05:54;99068.18;;;8.53;87.83
57412;BME280;43247;52.828;-8.980;2023-03-22T03:06:51;99069.84;;;8.52;87.78
57412;BME280;43247;52.828;-8.980;2023-03-22T03:07:54;99072.62;;;8.52;87.45
57412;BME280;43247;52.828;-8.980;2023-03-22T03:08:51;99079.96;;;8.51;87.73
57412;BME280;43247;52.828;-8.980;2023-03-22T03:09:51;99075.08;;;8.51;87.87
57412;BME280;43247;52.828;-8.980;2023-03-22T03:10:51;99074.78;;;8.51;88.45
57412;BME280;43247;52.828;-8.980;2023-03-22T03:11:52;99068.10;;;8.52;89.02
57412;BME280;43247;52.828;-8.980;2023-03-22T03:12:51;99064.82;;;8.51;88.50
57412;BME280;43247;52.828;-8.980;2023-03-22T03:13:51;99066.30;;;8.50;88.51
57412;BME280;43247;52.828;-8.980;2023-03-22T03:14:52;99068.60;;;8.50;88.78
57412;BME280;43247;52.828;-8.980;2023-03-22T03:15:56;99068.87;;;8.50;88.65
57412;BME280;43247;52.828;-8.980;2023-03-22T03:17:05;99067.10;;;8.50;88.83
57412;BME280;43247;52.828;-8.980;2023-03-22T03:18:04;99067.00;;;8.50;88.81
57412;BME280;43247;52.828;-8.980;2023-03-22T03:18:58;99067.49;;;8.49;89.28
57412;BME280;43247;52.828;-8.980;2023-03-22T03:20:02;99064.82;;;8.48;88.73
57412;BME280;43247;52.828;-8.980;2023-03-22T03:21:00;99068.53;;;8.49;89.04
57412;BME280;43247;52.828;-8.980;2023-03-22T03:22:00;99069.35;;;8.49;89.43
57412;BME280;43247;52.828;-8.980;2023-03-22T03:23:06;99068.91;;;8.47;89.32
57412;BME280;43247;52.828;-8.980;2023-03-22T03:24:04;99072.48;;;8.48;89.04
57412;BME280;43247;52.828;-8.980;2023-03-22T03:25:00;99072.77;;;8.48;89.43
57412;BME280;43247;52.828;-8.980;2023-03-22T03:25:59;99079.29;;;8.48;89.34
57412;BME280;43247;52.828;-8.980;2023-03-22T03:27:01;99083.17;;;8.48;89.22
57412;BME280;43247;52.828;-8.980;2023-03-22T03:28:02;99079.55;;;8.48;89.48
57412;BME280;43247;52.828;-8.980;2023-03-22T03:29:00;99080.94;;;8.49;89.55
57412;BME280;43247;52.828;-8.980;2023-03-22T03:30:01;99077.65;;;8.48;89.47
57412;BME280;43247;52.828;-8.980;2023-03-22T03:31:02;99081.01;;;8.47;89.62
57412;BME280;43247;52.828;-8.980;2023-03-22T03:32:04;99081.18;;;8.47;89.89
57412;BME280;43247;52.828;-8.980;2023-03-22T03:33:02;99081.54;;;8.48;89.77
57412;BME280;43247;52.828;-8.980;2023-03-22T03:34:06;99074.86;;;8.47;89.91
57412;BME280;43247;52.828;-8.980;2023-03-22T03:35:04;99082.08;;;8.47;89.77
57412;BME280;43247;52.828;-8.980;2023-03-22T03:36:02;99077.88;;;8.48;90.09
57412;BME280;43247;52.828;-8.980;2023-03-22T03:37:03;99076.79;;;8.48;89.92
57412;BME280;43247;52.828;-8.980;2023-03-22T03:38:02;99077.40;;;8.47;89.87
57412;BME280;43247;52.828;-8.980;2023-03-22T03:39:01;99076.72;;;8.47;89.71
57412;BME280;43247;52.828;-8.980;2023-03-22T03:40:05;99076.05;;;8.47;89.80
57412;BME280;43247;52.828;-8.980;2023-03-22T03:41:03;99082.38;;;8.47;89.88
57412;BME280;43247;52.828;-8.980;2023-03-22T03:42:02;99083.99;;;8.47;89.86
57412;BME280;43247;52.828;-8.980;2023-03-22T03:43:03;99078.82;;;8.49;89.74
57412;BME280;43247;52.828;-8.980;2023-03-22T03:44:02;99080.14;;;8.48;89.79
57412;BME280;43247;52.828;-8.980;2023-03-22T03:45:04;99081.02;;;8.48;89.67
57412;BME280;43247;52.828;-8.980;2023-03-22T03:46:04;99081.46;;;8.48;89.57
57412;BME280;43247;52.828;-8.980;2023-03-22T03:47:05;99083.99;;;8.46;89.65
57412;BME280;43247;52.828;-8.980;2023-03-22T03:48:07;99082.57;;;8.45;89.49
57412;BME280;43247;52.828;-8.980;2023-03-22T03:49:05;99081.83;;;8.44;89.55
57412;BME280;43247;52.828;-8.980;2023-03-22T03:50:07;99076.87;;;8.43;89.57
57412;BME280;43247;52.828;-8.980;2023-03-22T03:51:06;99076.67;;;8.43;89.47
57412;BME280;43247;52.828;-8.980;2023-03-22T03:52:06;99074.29;;;8.43;89.52
57412;BME280;43247;52.828;-8.980;2023-03-22T03:53:06;99077.02;;;8.42;89.58
57412;BME280;43247;52.828;-8.980;2023-03-22T03:54:06;99072.62;;;8.41;89.50
57412;BME280;43247;52.828;-8.980;2023-03-22T03:55:07;99075.25;;;8.41;89.43
57412;BME280;43247;52.828;-8.980;2023-03-22T03:56:07;99077.27;;;8.37;88.67
57412;BME280;43247;52.828;-8.980;2023-03-22T03:57:07;99077.25;;;8.36;88.15
57412;BME280;43247;52.828;-8.980;2023-03-22T03:58:08;99076.05;;;8.33;86.96
57412;BME280;43247;52.828;-8.980;2023-03-22T03:59:08;99077.47;;;8.34;86.78
57412;BME280;43247;52.828;-8.980;2023-03-22T04:00:10;99079.06;;;8.34;86.27
57412;BME280;43247;52.828;-8.980;2023-03-22T04:01:09;99078.84;;;8.36;85.74
57412;BME280;43247;52.828;-8.980;2023-03-22T04:02:09;99078.77;;;8.35;85.90
57412;BME280;43247;52.828;-8.980;2023-03-22T04:03:09;99082.10;;;8.36;86.38
57412;BME280;43247;52.828;-8.980;2023-03-22T04:04:09;99079.77;;;8.38;85.95
57412;BME280;43247;52.828;-8.980;2023-03-22T04:05:11;99080.37;;;8.36;85.83
57412;BME280;43247;52.828;-8.980;2023-03-22T04:06:10;99081.07;;;8.35;85.87
57412;BME280;43247;52.828;-8.980;2023-03-22T04:07:10;99081.55;;;8.36;86.27
57412;BME280;43247;52.828;-8.980;2023-03-22T04:08:11;99082.72;;;8.36;86.56
57412;BME280;43247;52.828;-8.980;2023-03-22T04:09:11;99087.36;;;8.36;86.08
57412;BME280;43247;52.828;-8.980;2023-03-22T04:10:11;99088.73;;;8.36;85.47
57412;BME280;43247;52.828;-8.980;2023-03-22T04:11:12;99087.77;;;8.36;85.88
57412;BME280;43247;52.828;-8.980;2023-03-22T04:12:12;99086.65;;;8.36;85.93
57412;BME280;43247;52.828;-8.980;2023-03-22T04:13:12;99088.09;;;8.37;86.41
57412;BME280;43247;52.828;-8.980;2023-03-22T04:14:13;99090.49;;;8.36;86.19
57412;BME280;43247;52.828;-8.980;2023-03-22T04:15:13;99090.28;;;8.34;86.65
57412;BME280;43247;52.828;-8.980;2023-03-22T04:16:13;99090.06;;;8.34;86.30
57412;BME280;43247;52.828;-8.980;2023-03-22T04:17:13;99089.49;;;8.33;86.31
57412;BME280;43247;52.828;-8.980;2023-03-22T04:18:13;99091.63;;;8.34;86.08
57412;BME280;43247;52.828;-8.980;2023-03-22T04:19:14;99090.03;;;8.35;86.75
57412;BME280;43247;52.828;-8.980;2023-03-22T04:20:14;99091.20;;;8.36;86.72
57412;BME280;43247;52.828;-8.980;2023-03-22T04:21:14;99090.57;;;8.36;86.52
57412;BME280;43247;52.828;-8.980;2023-03-22T04:22:14;99087.75;;;8.35;86.40
57412;BME280;43247;52.828;-8.980;2023-03-22T04:23:14;99089.35;;;8.35;86.53
57412;BME280;43247;52.828;-8.980;2023-03-22T04:24:14;99092.12;;;8.34;86.09
57412;BME280;43247;52.828;-8.980;2023-03-22T04:25:15;99095.48;;;8.34;86.56
57412;BME280;43247;52.828;-8.980;2023-03-22T04:26:16;99097.71;;;8.34;86.93
57412;BME280;43247;52.828;-8.980;2023-03-22T04:27:17;99099.39;;;8.34;86.94
57412;BME280;43247;52.828;-8.980;2023-03-22T04:28:17;99102.27;;;8.33;87.12
57412;BME280;43247;52.828;-8.980;2023-03-22T04:29:18;99103.56;;;8.32;86.55
57412;BME280;43247;52.828;-8.980;2023-03-22T04:30:18;99103.03;;;8.25;85.89
57412;BME280;43247;52.828;-8.980;2023-03-22T04:31:19;99105.53;;;8.24;85.26
57412;BME280;43247;52.828;-8.980;2023-03-22T04:32:20;99106.00;;;8.23;84.89
57412;BME280;43247;52.828;-8.980;2023-03-22T04:33:20;99105.21;;;8.23;84.96
57412;BME280;43247;52.828;-8.980;2023-03-22T04:34:20;99105.60;;;8.26;84.71
57412;BME280;43247;52.828;-8.980;2023-03-22T04:35:20;99104.22;;;8.26;84.90
57412;BME280;43247;52.828;-8.980;2023-03-22T04:36:21;99110.27;;;8.27;85.12
57412;BME280;43247;52.828;-8.980;2023-03-22T04:37:22;99106.92;;;8.28;85.33
57412;BME280;43247;52.828;-8.980;2023-03-22T04:38:22;99104.04;;;8.27;84.92
57412;BME280;43247;52.828;-8.980;2023-03-22T04:39:22;99105.99;;;8.24;85.10
57412;BME280;43247;52.828;-8.980;2023-03-22T04:40:23;99104.15;;;8.27;85.95
57412;BME280;43247;52.828;-8.980;2023-03-22T04:41:23;99104.70;;;8.28;85.04
57412;BME280;43247;52.828;-8.980;2023-03-22T04:42:24;99105.53;;;8.28;85.63
57412;BME280;43247;52.828;-8.980;2023-03-22T04:43:24;99105.11;;;8.29;85.65
57412;BME280;43247;52.828;-8.980;2023-03-22T04:44:24;99103.69;;;8.28;85.18
57412;BME280;43247;52.828;-8.980;2023-03-22T04:45:24;99100.58;;;8.27;85.87
57412;BME280;43247;52.828;-8.980;2023-03-22T04:46:24;99099.97;;;8.25;85.72
57412;BME280;43247;52.828;-8.980;2023-03-22T04:47:24;99097.97;;;8.25;85.55
57412;BME280;43247;52.828;-8.980;2023-03-22T04:48:25;99097.54;;;8.25;85.73
57412;BME280;43247;52.828;-8.980;2023-03-22T04:49:25;99099.26;;;8.25;85.45
57412;BME280;43247;52.828;-8.980;2023-03-22T04:50:25;99093.98;;;8.24;85.71
57412;BME280;43247;52.828;-8.980;2023-03-22T04:51:26;99095.24;;;8.26;85.74
57412;BME280;43247;52.828;-8.980;2023-03-22T04:52:26;99096.71;;;8.25;86.03
57412;BME280;43247;52.828;-8.980;2023-03-22T04:53:26;99097.16;;;8.25;86.18
57412;BME280;43247;52.828;-8.980;2023-03-22T04:54:26;99095.39;;;8.25;86.16
57412;BME280;43247;52.828;-8.980;2023-03-22T04:55:26;99098.09;;;8.24;86.16
57412;BME280;43247;52.828;-8.980;2023-03-22T04:56:26;99092.01;;;8.24;85.98
57412;BME280;43247;52.828;-8.980;2023-03-22T04:57:26;99091.03;;;8.23;86.06
57412;BME280;43247;52.828;-8.980;2023-03-22T04:58:27;99093.50;;;8.23;86.12
57412;BME280;43247;52.828;-8.980;2023-03-22T04:59:27;99092.06;;;8.22;86.17
57412;BME280;43247;52.828;-8.980;2023-03-22T05:00:27;99093.66;;;8.22;86.23
57412;BME280;43247;52.828;-8.980;2023-03-22T05:01:27;99093.25;;;8.21;86.12
57412;BME280;43247;52.828;-8.980;2023-03-22T05:02:27;99094.44;;;8.20;86.28
57412;BME280;43247;52.828;-8.980;2023-03-22T05:03:28;99093.23;;;8.20;86.22
57412;BME280;43247;52.828;-8.980;2023-03-22T05:04:28;99094.45;;;8.19;86.34
57412;BME280;43247;52.828;-8.980;2023-03-22T05:05:28;99099.64;;;8.19;86.46
57412;BME280;43247;52.828;-8.980;2023-03-22T05:06:29;99098.76;;;8.18;86.62
57412;BME280;43247;52.828;-8.980;2023-03-22T05:07:28;99098.49;;;8.18;86.51
57412;BME280;43247;52.828;-8.980;2023-03-22T05:08:30;99100.16;;;8.18;86.54
57412;BME280;43247;52.828;-8.980;2023-03-22T05:09:30;99094.61;;;8.18;86.43
57412;BME280;43247;52.828;-8.980;2023-03-22T05:10:30;99095.22;;;8.17;86.43
57412;BME280;43247;52.828;-8.980;2023-03-22T05:11:30;99098.38;;;8.16;86.49
57412;BME280;43247;52.828;-8.980;2023-03-22T05:12:30;99102.98;;;8.16;86.52
57412;BME280;43247;52.828;-8.980;2023-03-22T05:13:30;99099.91;;;8.16;86.43
57412;BME280;43247;52.828;-8.980;2023-03-22T05:14:31;99101.80;;;8.15;86.30
57412;BME280;43247;52.828;-8.980;2023-03-22T05:15:31;99103.99;;;8.15;86.36
57412;BME280;43247;52.828;-8.980;2023-03-22T05:16:32;99105.95;;;8.14;86.49
57412;BME280;43247;52.828;-8.980;2023-03-22T05:17:32;99108.05;;;8.13;86.36
57412;BME280;43247;52.828;-8.980;2023-03-22T05:18:32;99110.34;;;8.12;86.33
57412;BME280;43247;52.828;-8.980;2023-03-22T05:19:32;99110.33;;;8.12;86.48
57412;BME280;43247;52.828;-8.980;2023-03-22T05:20:32;99112.98;;;8.11;86.42
57412;BME280;43247;52.828;-8.980;2023-03-22T05:21:33;99114.71;;;8.12;86.41
57412;BME280;43247;52.828;-8.980;2023-03-22T05:22:33;99114.32;;;8.10;86.36
57412;BME280;43247;52.828;-8.980;2023-03-22T05:23:33;99116.44;;;8.11;86.38
57412;BME280;43247;52.828;-8.980;2023-03-22T05:24:33;99116.26;;;8.09;86.30
57412;BME280;43247;52.828;-8.980;2023-03-22T05:25:33;99114.63;;;8.08;86.37
57412;BME280;43247;52.828;-8.980;2023-03-22T05:26:34;99114.12;;;8.08;86.27